Time;durP1;ratioP1;P1;durP2;ratioP2;P2;SDS_P1;SDS_P2;PMS_P1;PMS_P2;Temp;Humidity;BMP_temperature;BMP_pressure;BME280_temperature;BME280_humidity;BME280_pressure;Samples;Min_cycle;Max_cycle;Signal;HPM_P1;HPM_P2
2022/07/31 00:02:16;;;;;;;;;1.00;1.00;;;;;23.60;51.53;101331.09;5097418;27;45541;-70
2022/07/31 00:04:41;;;;;;;;;0.00;0.00;;;;;23.56;51.56;101343.22;5096982;27;45843;-68
2022/07/31 00:07:06;;;;;;;;;0.00;0.00;;;;;23.48;51.91;101335.84;5096651;27;45338;-71
2022/07/31 00:09:32;;;;;;;;;1.00;1.00;;;;;23.40;51.86;101332.19;5095870;27;45338;-73
2022/07/31 00:11:57;;;;;;;;;0.00;0.00;;;;;23.21;51.87;101306.00;5097227;27;45670;-72
2022/07/31 00:14:23;;;;;;;;;1.00;1.00;;;;;23.32;52.28;101326.69;5096821;27;46119;-69
2022/07/31 00:16:48;;;;;;;;;0.00;0.00;;;;;23.24;52.45;101321.97;5096487;27;45218;-65
2022/07/31 00:19:13;;;;;;;;;1.75;0.50;;;;;23.13;52.17;101319.47;5096443;27;45223;-64
2022/07/31 00:21:39;;;;;;;;;1.00;1.00;;;;;23.15;52.63;101321.00;5097422;27;45219;-72
2022/07/31 00:24:04;;;;;;;;;0.25;0.25;;;;;23.16;51.87;101324.59;5096890;27;46806;-71
2022/07/31 00:26:29;;;;;;;;;2.75;2.50;;;;;23.16;52.47;101314.59;5077559;27;45251;-72
2022/07/31 00:28:55;;;;;;;;;1.00;1.00;;;;;23.09;52.91;101313.50;5096792;27;45577;-68
2022/07/31 00:31:20;;;;;;;;;0.00;0.00;;;;;23.12;52.17;101312.31;5096770;27;45241;-64
2022/07/31 00:33:46;;;;;;;;;1.00;1.00;;;;;23.08;52.80;101313.63;5096353;27;45763;-66
2022/07/31 00:36:12;;;;;;;;;0.25;0.25;;;;;23.06;52.86;101318.38;5088369;27;45333;-67
2022/07/31 00:38:38;;;;;;;;;0.50;0.50;;;;;22.97;53.10;101319.25;5075812;28;45337;-64
2022/07/31 00:41:03;;;;;;;;;0.00;0.00;;;;;22.91;52.78;101320.69;5076491;28;45583;-66
2022/07/31 00:43:28;;;;;;;;;0.00;0.00;;;;;22.95;53.00;101327.53;5076394;28;46390;-65
2022/07/31 00:45:56;;;;;;;;;0.50;0.50;;;;;22.89;53.11;101322.69;5076543;28;45885;-70
2022/07/31 00:48:22;;;;;;;;;1.00;1.00;;;;;22.91;53.79;101326.09;5076391;27;45484;-69
2022/07/31 00:50:47;;;;;;;;;1.00;1.00;;;;;22.94;52.96;101329.41;5076514;27;45375;-71
2022/07/31 00:53:13;;;;;;;;;1.00;1.00;;;;;22.97;52.74;101324.69;5076313;28;45974;-68
2022/07/31 00:55:38;;;;;;;;;1.25;0.25;;;;;22.88;53.29;101311.00;5076148;28;45229;-70
2022/07/31 00:58:04;;;;;;;;;0.25;0.25;;;;;22.93;53.21;101330.41;5076438;28;45864;-71
2022/07/31 01:00:29;;;;;;;;;1.50;0.25;;;;;22.80;54.40;101329.84;5058203;28;45409;-70
2022/07/31 01:02:55;;;;;;;;;0.50;0.50;;;;;22.71;53.94;101313.59;5075457;28;45423;-72
2022/07/31 01:05:20;;;;;;;;;0.75;0.75;;;;;22.78;53.69;101331.81;5075797;28;45253;-69
2022/07/31 01:07:47;;;;;;;;;0.75;0.75;;;;;22.83;53.66;101326.00;5057682;28;45292;-66
2022/07/31 01:10:22;;;;;;;;;1.00;1.00;;;;;22.81;53.52;101320.72;5075948;28;45301;-69
2022/07/31 01:12:55;;;;;;;;;1.00;1.00;;;;;22.86;53.52;101326.56;5073794;28;46320;-68
2022/07/31 01:15:23;;;;;;;;;1.75;1.75;;;;;22.82;54.04;101322.41;5075411;28;45355;-72
2022/07/31 01:17:51;;;;;;;;;0.00;0.00;;;;;22.82;53.46;101327.84;5075778;28;45498;-73
2022/07/31 01:20:16;;;;;;;;;40.67;19.00;;;;;22.80;53.61;101331.69;5077145;28;45398;-70
2022/07/31 01:23:13;;;;;;;;;1.00;1.00;;;;;22.78;54.20;101339.97;5079442;28;46118;-74
2022/07/31 01:25:53;;;;;;;;;1.75;1.75;;;;;22.68;54.54;101336.44;5079090;27;45358;-68
2022/07/31 01:28:55;;;;;;;;;2.00;2.00;;;;;22.59;55.08;101338.16;5061078;28;45391;-68
2022/07/31 01:31:26;;;;;;;;;2.00;2.00;;;;;22.51;55.07;101329.03;5079499;28;45276;-72
2022/07/31 01:33:58;;;;;;;;;2.67;1.00;;;;;22.46;55.08;101334.03;5079125;28;45986;-72
2022/07/31 01:36:33;;;;;;;;;0.00;0.00;;;;;22.46;55.48;101325.91;5087926;27;45365;-66
2022/07/31 01:38:59;;;;;;;;;2.50;2.50;;;;;22.47;54.79;101322.19;5099562;27;45435;-65
2022/07/31 01:41:29;;;;;;;;;1.75;1.75;;;;;22.51;55.35;101331.75;5099620;27;45302;-66
2022/07/31 01:43:57;;;;;;;;;3.00;3.00;;;;;22.46;54.95;101317.78;5080733;27;45323;-70
2022/07/31 01:46:25;;;;;;;;;2.75;2.75;;;;;22.54;54.99;101329.63;5099209;27;45286;-66
2022/07/31 01:48:53;;;;;;;;;2.00;2.00;;;;;22.47;55.16;101333.03;5098804;27;45449;-67
2022/07/31 01:51:20;;;;;;;;;2.00;2.00;;;;;22.48;55.47;101332.03;5099112;27;45167;-67
2022/07/31 01:53:47;;;;;;;;;1.75;0.75;;;;;22.38;55.70;101327.47;5099163;27;46022;-70
2022/07/31 01:56:16;;;;;;;;;3.00;2.00;;;;;22.33;55.77;101332.50;5099334;27;45258;-73
2022/07/31 01:58:43;;;;;;;;;1.00;1.00;;;;;22.30;56.42;101334.63;5099013;27;45366;-72
2022/07/31 02:01:11;;;;;;;;;1.00;1.00;;;;;22.21;56.00;101322.81;5099175;27;45954;-73
2022/07/31 02:03:37;;;;;;;;;1.00;1.00;;;;;22.24;57.00;101333.34;5098712;27;45350;-71
2022/07/31 02:06:03;;;;;;;;;1.00;1.00;;;;;22.17;56.83;101334.94;5098441;27;45280;-70
2022/07/31 02:08:30;;;;;;;;;2.25;2.25;;;;;22.12;57.26;101339.91;5098860;27;45443;-68
2022/07/31 02:10:58;;;;;;;;;1.00;1.00;;;;;22.10;57.22;101341.91;5098975;27;45551;-67
2022/07/31 02:13:25;;;;;;;;;1.00;1.00;;;;;22.03;57.47;101335.31;5098396;27;45251;-64
2022/07/31 02:15:52;;;;;;;;;1.75;1.00;;;;;22.03;57.91;101340.75;5097917;27;45480;-64
2022/07/31 02:18:20;;;;;;;;;0.25;0.25;;;;;21.99;57.78;101345.56;5080405;27;45429;-67
2022/07/31 02:20:49;;;;;;;;;0.50;0.50;;;;;22.01;57.14;101343.59;5097817;27;45613;-69
2022/07/31 02:23:14;;;;;;;;;2.00;1.00;;;;;22.01;56.82;101326.50;5098235;27;45935;-63
2022/07/31 02:25:40;;;;;;;;;11.00;9.00;;;;;22.03;57.94;101332.63;5098341;27;45711;-70
2022/07/31 02:28:12;;;;;;;;;1.00;1.00;;;;;21.97;56.99;101327.75;5098388;27;45334;-67
2022/07/31 02:30:41;;;;;;;;;0.00;0.00;;;;;22.07;57.40;101336.78;5098540;27;45362;-70
2022/07/31 02:33:12;;;;;;;;;1.00;1.00;;;;;21.96;57.70;101334.16;5079076;27;48242;-66
2022/07/31 02:35:39;;;;;;;;;1.00;1.00;;;;;21.95;57.98;101346.00;5095834;27;45405;-66
2022/07/31 02:38:07;;;;;;;;;1.00;1.00;;;;;21.84;58.47;101335.28;5078175;27;45207;-64
2022/07/31 02:40:34;;;;;;;;;1.00;1.00;;;;;21.84;58.82;101340.72;5078429;28;45475;-66
2022/07/31 02:42:59;;;;;;;;;2.00;1.00;;;;;21.74;58.44;101319.03;5077333;27;46676;-61
2022/07/31 02:45:25;;;;;;;;;0.75;0.75;;;;;21.75;58.10;101316.22;5077418;28;45425;-66
2022/07/31 02:47:52;;;;;;;;;0.75;0.75;;;;;21.90;58.19;101322.06;5077773;28;45473;-68
2022/07/31 02:50:18;;;;;;;;;1.00;1.00;;;;;21.89;58.25;101322.22;5078106;28;45418;-72
2022/07/31 02:52:43;;;;;;;;;1.00;1.00;;;;;21.78;59.59;101310.50;5077530;27;45346;-72
2022/07/31 02:55:10;;;;;;;;;1.00;1.00;;;;;21.73;59.74;101320.03;5077292;28;45226;-75
2022/07/31 02:57:35;;;;;;;;;1.50;0.75;;;;;21.70;59.72;101332.00;5077698;28;45386;-71
2022/07/31 03:00:13;;;;;;;;;1.00;1.00;;;;;21.72;59.35;101335.41;5077536;27;45600;-67
2022/07/31 03:02:39;;;;;;;;;1.33;1.33;;;;;21.68;59.36;101331.28;5077116;28;45650;-68
2022/07/31 03:05:06;;;;;;;;;0.00;0.00;;;;;21.61;59.45;101308.47;5077495;28;45401;-64
2022/07/31 03:07:31;;;;;;;;;1.00;1.00;;;;;21.70;59.78;101317.59;5077353;28;45432;-67
2022/07/31 03:09:57;;;;;;;;;3.00;2.00;;;;;21.50;59.60;101295.09;5077694;27;45375;-66
2022/07/31 03:12:24;;;;;;;;;3.00;3.00;;;;;21.56;60.53;101329.69;5059349;28;45411;-63
2022/07/31 03:14:51;;;;;;;;;3.00;2.67;;;;;21.52;60.57;101322.84;5077385;28;45323;-69
2022/07/31 03:17:18;;;;;;;;;3.67;3.00;;;;;21.50;61.17;101316.72;5077273;28;45489;-68
2022/07/31 03:19:44;;;;;;;;;4.33;4.33;;;;;21.37;61.58;101316.13;5059287;28;45653;-65
2022/07/31 03:22:09;;;;;;;;;3.67;3.67;;;;;21.31;61.45;101322.06;5076672;27;45443;-63
2022/07/31 03:24:35;;;;;;;;;5.33;4.00;;;;;21.24;61.67;101320.91;5076936;28;45552;-63
2022/07/31 03:27:01;;;;;;;;;4.00;4.00;;;;;21.23;61.86;101305.66;5076993;28;45295;-62
2022/07/31 03:29:36;;;;;;;;;4.67;4.67;;;;;21.30;61.71;101309.53;5077208;28;45391;-65
2022/07/31 03:32:01;;;;;;;;;6.00;6.00;;;;;21.21;61.81;101301.22;5076811;28;45383;-63
2022/07/31 03:34:27;;;;;;;;;7.00;5.00;;;;;21.33;61.10;101299.28;5058688;28;45429;-64
2022/07/31 03:36:52;;;;;;;;;6.00;5.33;;;;;21.41;60.78;101301.31;5090211;27;45357;-65
2022/07/31 03:39:18;;;;;;;;;12.67;9.00;;;;;21.49;60.05;101296.09;5097693;27;45464;-63
2022/07/31 03:41:44;;;;;;;;;12.33;12.33;;;;;21.59;59.89;101299.63;5095994;27;45533;-62
2022/07/31 03:44:10;;;;;;;;;11.33;10.00;;;;;21.56;59.87;101283.69;5095779;27;45235;-66
2022/07/31 03:46:36;;;;;;;;;14.00;14.00;;;;;21.58;59.86;101292.50;5097234;27;45227;-61
2022/07/31 03:49:02;;;;;;;;;8.00;8.00;;;;;21.62;60.36;101299.38;5097238;27;45473;-67
2022/07/31 03:51:27;;;;;;;;;13.67;12.33;;;;;21.49;60.16;101287.97;5078506;27;47057;-65
2022/07/31 03:53:53;;;;;;;;;13.00;12.67;;;;;21.48;60.58;101294.34;5097054;27;45736;-67
2022/07/31 03:56:20;;;;;;;;;11.67;11.33;;;;;21.42;60.43;101297.63;5097757;27;45339;-68
2022/07/31 03:58:46;;;;;;;;;15.00;14.00;;;;;21.49;59.58;101304.19;5097536;27;45576;-69
2022/07/31 04:01:14;;;;;;;;;14.00;12.67;;;;;21.60;59.55;101290.50;5078629;27;47132;-64
2022/07/31 04:03:40;;;;;;;;;17.00;14.67;;;;;21.52;59.85;101282.25;5097594;27;45224;-71
2022/07/31 04:06:05;;;;;;;;;12.33;9.00;;;;;21.54;59.48;101287.53;5097236;27;45311;-71
2022/07/31 04:08:32;;;;;;;;;15.00;13.00;;;;;21.52;60.28;101301.22;5097554;27;45574;-73
2022/07/31 04:10:57;;;;;;;;;13.00;12.00;;;;;21.49;59.63;101282.56;5096694;27;46339;-68
2022/07/31 04:13:22;;;;;;;;;13.00;12.00;;;;;21.58;59.00;101294.38;5097140;27;45247;-68
2022/07/31 04:15:48;;;;;;;;;14.00;14.00;;;;;21.56;59.06;101283.69;5097350;27;45284;-69
2022/07/31 04:18:13;;;;;;;;;18.00;16.00;;;;;21.62;59.13;101287.69;5097973;27;45369;-66
2022/07/31 04:20:39;;;;;;;;;19.00;15.00;;;;;21.52;59.30;101276.00;5097271;27;45357;-69
2022/07/31 04:23:04;;;;;;;;;13.33;12.00;;;;;21.59;58.83;101287.94;5096459;27;45350;-63
2022/07/31 04:25:29;;;;;;;;;12.33;12.33;;;;;21.56;59.30;101291.81;5096644;27;45413;-62
2022/07/31 04:27:55;;;;;;;;;15.67;15.00;;;;;21.53;59.56;101286.69;5097049;27;45296;-69
2022/07/31 04:30:20;;;;;;;;;15.33;14.67;;;;;21.51;59.75;101288.66;5096421;27;46330;-66
2022/07/31 04:32:45;;;;;;;;;15.67;12.00;;;;;21.51;59.24;101283.25;5096338;27;45398;-71
2022/07/31 04:35:12;;;;;;;;;11.67;11.67;;;;;21.58;59.57;101300.63;5096558;27;45681;-72
2022/07/31 04:37:38;;;;;;;;;7.33;7.33;;;;;21.60;59.86;101300.50;5077356;27;45408;-73
2022/07/31 04:40:04;;;;;;;;;10.00;10.00;;;;;21.65;59.88;101293.69;5075715;27;46236;-72
2022/07/31 04:42:29;;;;;;;;;11.67;11.00;;;;;21.52;59.92;101287.69;5057963;28;45418;-72
2022/07/31 04:44:54;;;;;;;;;8.00;8.00;;;;;21.55;60.05;101281.97;5076498;28;45342;-71
2022/07/31 04:47:20;;;;;;;;;7.67;7.67;;;;;21.60;59.82;101290.50;5058162;28;45422;-71
2022/07/31 04:49:45;;;;;;;;;9.00;8.00;;;;;21.67;59.52;101294.38;5057533;28;47097;-67
2022/07/31 04:52:11;;;;;;;;;8.00;8.00;;;;;21.70;60.14;101296.81;5075714;28;45364;-72
2022/07/31 04:54:37;;;;;;;;;5.33;5.33;;;;;21.66;59.60;101300.81;5075940;28;45360;-65
2022/07/31 04:57:03;;;;;;;;;6.00;6.00;;;;;21.68;59.32;101300.66;5079330;27;45554;-62
2022/07/31 04:59:28;;;;;;;;;7.00;5.00;;;;;21.69;59.44;101305.94;5079079;27;47195;-64
2022/07/31 05:01:53;;;;;;;;;7.00;6.00;;;;;21.67;59.32;101299.81;5061705;28;45210;-71
2022/07/31 05:04:19;;;;;;;;;4.67;4.67;;;;;21.67;59.34;101302.50;5061401;28;45437;-63
2022/07/31 05:06:50;;;;;;;;;4.00;4.00;;;;;21.68;58.85;101309.63;5079634;28;45291;-63
2022/07/31 05:09:24;;;;;;;;;6.33;5.00;;;;;21.67;58.82;101312.47;5079282;28;45350;-62
2022/07/31 05:11:50;;;;;;;;;4.67;4.67;;;;;21.63;59.27;101300.22;5077816;28;45255;-66
2022/07/31 05:14:18;;;;;;;;;8.33;6.33;;;;;21.54;60.00;101296.50;5060955;28;45387;-68
2022/07/31 05:16:44;;;;;;;;;5.00;5.00;;;;;21.51;59.40;101294.09;5079533;28;45682;-67
2022/07/31 05:19:10;;;;;;;;;5.67;5.00;;;;;21.57;59.72;101303.47;5078651;28;45391;-69
2022/07/31 05:21:36;;;;;;;;;5.00;5.00;;;;;21.63;59.47;101306.50;5078747;27;45517;-65
2022/07/31 05:24:01;;;;;;;;;7.00;5.00;;;;;21.68;59.40;101306.06;5079015;28;45574;-70
2022/07/31 05:26:28;;;;;;;;;4.67;4.67;;;;;21.72;59.24;101308.34;5079461;27;45628;-68
2022/07/31 05:28:56;;;;;;;;;5.67;5.67;;;;;21.73;59.39;101312.75;5060572;28;47589;-72
2022/07/31 05:31:21;;;;;;;;;5.00;5.00;;;;;21.70;59.36;101309.50;5080340;27;45414;-71
2022/07/31 05:33:48;;;;;;;;;7.33;7.33;;;;;21.60;60.10;101290.50;5080946;28;45346;-68
2022/07/31 05:36:15;;;;;;;;;5.00;5.00;;;;;21.70;59.97;101304.06;5069051;27;45485;-66
2022/07/31 05:38:41;;;;;;;;;4.00;4.00;;;;;21.69;59.89;101296.94;5098678;27;45275;-64
2022/07/31 05:41:07;;;;;;;;;9.00;6.00;;;;;21.68;59.62;101298.81;5080592;27;45370;-65
2022/07/31 05:43:33;;;;;;;;;5.67;5.67;;;;;21.77;59.62;101291.69;5099120;27;45354;-67
2022/07/31 05:45:58;;;;;;;;;5.00;5.00;;;;;21.89;58.97;101300.53;5098328;27;45662;-64
2022/07/31 05:48:23;;;;;;;;;4.33;4.33;;;;;21.84;59.16;101294.69;5098975;27;46532;-73
2022/07/31 05:50:50;;;;;;;;;5.00;5.00;;;;;21.64;59.17;101269.47;5098714;27;45460;-70
2022/07/31 05:53:16;;;;;;;;;5.00;4.00;;;;;21.74;59.14;101295.50;5098844;27;45304;-67
2022/07/31 05:55:45;;;;;;;;;6.00;6.00;;;;;21.79;59.22;101306.81;5099208;27;45521;-70
2022/07/31 05:58:12;;;;;;;;;5.00;5.00;;;;;21.82;59.34;101312.94;5098521;27;46154;-68
2022/07/31 06:00:38;;;;;;;;;5.00;5.00;;;;;21.80;58.79;101315.78;5098863;27;45409;-69
2022/07/31 06:03:04;;;;;;;;;6.67;6.67;;;;;21.84;59.28;101313.63;5099032;27;45306;-73
2022/07/31 06:05:31;;;;;;;;;7.00;6.00;;;;;21.85;59.13;101316.19;5099328;27;45354;-68
2022/07/31 06:07:58;;;;;;;;;4.67;4.33;;;;;21.81;59.11;101308.50;5097522;27;46539;-67
2022/07/31 06:10:24;;;;;;;;;5.33;5.33;;;;;21.84;59.08;101308.22;5098728;27;45359;-73
2022/07/31 06:12:49;;;;;;;;;5.67;5.67;;;;;21.81;58.82;101300.38;5098583;27;45437;-67
2022/07/31 06:15:15;;;;;;;;;4.00;4.00;;;;;21.77;58.02;101303.38;5098952;27;45388;-64
2022/07/31 06:17:41;;;;;;;;;8.00;6.33;;;;;21.76;58.29;101301.69;5098480;27;46285;-64
2022/07/31 06:20:08;;;;;;;;;6.00;6.00;;;;;21.78;58.45;101309.66;5080722;27;45423;-70
2022/07/31 06:22:34;;;;;;;;;6.00;6.00;;;;;21.83;58.24;101309.22;5098231;27;45479;-71
2022/07/31 06:24:59;;;;;;;;;8.00;6.33;;;;;21.84;58.24;101309.06;5099268;27;45226;-69
2022/07/31 06:27:25;;;;;;;;;4.00;4.00;;;;;21.86;58.29;101307.06;5098431;27;46340;-63
2022/07/31 06:29:51;;;;;;;;;4.00;4.00;;;;;21.95;57.64;101305.38;5080050;27;45295;-64
2022/07/31 06:32:17;;;;;;;;;7.00;5.00;;;;;21.94;58.12;101306.38;5097090;27;45267;-65
2022/07/31 06:34:43;;;;;;;;;7.67;5.00;;;;;21.99;58.07;101313.06;5098488;27;45534;-64
2022/07/31 06:37:09;;;;;;;;;2.00;1.00;;;;;21.99;57.28;101306.78;5082498;27;46600;-66
2022/07/31 06:39:34;;;;;;;;;6.33;6.33;;;;;22.06;57.68;101307.97;5077609;27;45405;-63
2022/07/31 06:42:00;;;;;;;;;5.00;5.00;;;;;22.10;57.33;101305.84;5078338;28;45522;-66
2022/07/31 06:44:25;;;;;;;;;7.00;7.00;;;;;22.13;57.12;101321.78;5078108;28;45339;-63
2022/07/31 06:46:50;;;;;;;;;5.00;5.00;;;;;22.08;56.95;101312.25;5077545;28;46021;-71
2022/07/31 06:49:17;;;;;;;;;5.00;5.00;;;;;22.08;57.20;101311.41;5077049;27;45512;-68
2022/07/31 06:51:43;;;;;;;;;5.67;5.67;;;;;22.08;57.30;101306.84;5077616;28;45428;-66
2022/07/31 06:54:10;;;;;;;;;6.33;5.67;;;;;22.11;56.84;101313.81;5078029;28;45446;-66
2022/07/31 06:56:36;;;;;;;;;6.00;6.00;;;;;22.15;56.46;101320.69;5077270;28;46299;-73
2022/07/31 06:59:02;;;;;;;;;5.33;5.33;;;;;22.21;56.37;101322.81;5077750;28;46387;-73
2022/07/31 07:01:28;;;;;;;;;6.67;5.00;;;;;22.27;56.25;101321.38;5077679;28;45292;-67
2022/07/31 07:03:54;;;;;;;;;6.00;6.00;;;;;22.33;56.39;101335.19;5077714;28;45410;-68
2022/07/31 07:06:20;;;;;;;;;5.00;5.00;;;;;22.38;55.79;101313.06;5077275;28;45508;-69
2022/07/31 07:08:45;;;;;;;;;6.67;6.67;;;;;22.43;55.87;101315.38;5077372;28;45489;-73
2022/07/31 07:11:11;;;;;;;;;7.25;5.75;;;;;22.48;55.55;101316.63;5077175;28;45342;-68
2022/07/31 07:13:36;;;;;;;;;3.25;3.25;;;;;22.53;55.20;101316.22;5077326;28;45482;-66
2022/07/31 07:16:02;;;;;;;;;6.00;6.00;;;;;22.51;55.46;101318.19;5077439;27;45519;-69
2022/07/31 07:18:27;;;;;;;;;7.25;6.00;;;;;22.49;55.70;101315.63;5076804;28;45313;-69
2022/07/31 07:20:53;;;;;;;;;6.67;5.00;;;;;22.48;55.54;101313.91;5076912;27;45347;-63
2022/07/31 07:23:20;;;;;;;;;5.00;5.00;;;;;22.54;56.01;101324.19;5059273;28;45590;-73
2022/07/31 07:25:45;;;;;;;;;6.00;4.33;;;;;22.60;55.75;101322.75;5077015;28;45407;-69
2022/07/31 07:28:11;;;;;;;;;6.25;5.00;;;;;22.51;55.50;101318.19;5077051;28;45308;-67
2022/07/31 07:30:36;;;;;;;;;6.67;6.67;;;;;22.60;55.22;101339.88;5077330;27;45321;-72
2022/07/31 07:33:04;;;;;;;;;6.25;5.00;;;;;22.65;54.90;101339.41;5077534;28;45216;-66
2022/07/31 07:35:30;;;;;;;;;7.00;7.00;;;;;22.65;55.20;101337.56;5077128;27;45662;-72
2022/07/31 07:37:55;;;;;;;;;7.67;5.00;;;;;22.69;55.15;101337.28;5097037;27;45352;-73
2022/07/31 07:40:21;;;;;;;;;7.25;6.00;;;;;22.73;54.61;101333.28;5096996;27;45812;-66
2022/07/31 07:42:47;;;;;;;;;7.00;7.00;;;;;22.70;55.00;101323.59;5097521;27;45420;-64
2022/07/31 07:45:13;;;;;;;;;5.67;5.67;;;;;22.75;54.25;101325.84;5097211;27;45298;-66
2022/07/31 07:47:38;;;;;;;;;7.00;6.67;;;;;22.77;53.89;101337.41;5097354;27;45436;-70
2022/07/31 07:50:09;;;;;;;;;7.00;7.00;;;;;22.86;54.12;101337.41;5097955;27;45397;-64
2022/07/31 07:52:36;;;;;;;;;6.67;6.67;;;;;23.01;54.12;101339.63;5098342;27;45189;-62
2022/07/31 07:55:02;;;;;;;;;11.67;8.00;;;;;22.97;53.29;101332.81;5097318;27;45622;-64
2022/07/31 07:57:27;;;;;;;;;5.00;5.00;;;;;22.99;53.97;101326.22;5097082;27;45439;-63
2022/07/31 07:59:53;;;;;;;;;5.67;5.67;;;;;23.08;53.51;101338.06;5097132;27;45369;-66
2022/07/31 08:02:19;;;;;;;;;8.75;5.75;;;;;23.03;53.70;101326.78;5078663;27;45699;-74
2022/07/31 08:04:45;;;;;;;;;6.25;6.25;;;;;23.15;53.70;101322.88;5096878;27;47129;-73
2022/07/31 08:07:10;;;;;;;;;5.50;5.50;;;;;23.29;53.30;101345.94;5097394;27;45397;-67
2022/07/31 08:09:36;;;;;;;;;7.25;6.00;;;;;23.27;53.66;101334.38;5097226;27;45358;-65
2022/07/31 08:12:02;;;;;;;;;7.25;7.25;;;;;23.27;53.68;101340.66;5096962;27;45587;-71
2022/07/31 08:14:28;;;;;;;;;9.00;6.67;;;;;23.21;53.53;101325.00;5096645;27;45270;-68
2022/07/31 08:16:54;;;;;;;;;8.67;7.67;;;;;23.33;53.35;101337.38;5096571;27;45283;-71
2022/07/31 08:19:20;;;;;;;;;5.25;5.25;;;;;23.31;53.35;101333.97;5095437;27;45419;-64
2022/07/31 08:21:46;;;;;;;;;6.00;6.00;;;;;23.42;53.50;101346.44;5097163;27;45380;-66
2022/07/31 08:24:11;;;;;;;;;6.25;6.25;;;;;23.47;53.48;101344.16;5096815;27;45456;-68
2022/07/31 08:29:23;;;;;;;;;9.50;7.50;;;;;23.58;53.02;101351.28;5096955;27;45392;-68
2022/07/31 08:31:50;;;;;;;;;8.50;7.50;;;;;23.36;52.44;101314.50;5099809;27;45612;-71
2022/07/31 08:34:16;;;;;;;;;7.00;6.00;;;;;23.41;53.63;101337.47;5099911;27;46326;-72
2022/07/31 08:36:42;;;;;;;;;6.25;6.25;;;;;23.48;53.57;101343.16;5088524;27;45267;-70
2022/07/31 08:39:07;;;;;;;;;8.75;8.75;;;;;23.52;53.22;101337.25;5080113;28;45378;-67
2022/07/31 08:41:37;;;;;;;;;6.75;6.75;;;;;23.56;53.13;101343.22;5080159;27;45566;-68
2022/07/31 08:44:03;;;;;;;;;5.75;5.75;;;;;23.55;52.89;101331.50;5079575;27;45481;-64
2022/07/31 08:46:31;;;;;;;;;12.00;9.25;;;;;23.70;52.90;101329.19;5079560;28;45854;-64
2022/07/31 08:48:58;;;;;;;;;8.00;8.00;;;;;23.81;52.45;101328.94;5079440;28;45362;-65
2022/07/31 08:51:24;;;;;;;;;7.75;6.00;;;;;23.96;51.70;101321.13;5044859;28;45379;-67
2022/07/31 08:53:50;;;;;;;;;7.25;5.75;;;;;24.07;51.21;101320.88;5079245;28;45413;-65
2022/07/31 08:56:17;;;;;;;;;6.00;6.00;;;;;24.25;50.84;101339.06;5079485;27;45287;-63
2022/07/31 08:58:43;;;;;;;;;10.25;8.00;;;;;24.36;50.55;101347.00;5079649;28;45410;-63
2022/07/31 09:01:10;;;;;;;;;9.00;7.00;;;;;24.45;50.83;101335.16;5079634;28;45270;-65
2022/07/31 09:03:36;;;;;;;;;7.50;7.00;;;;;24.55;50.60;101322.34;5044519;28;46643;-70
2022/07/31 09:06:02;;;;;;;;;7.50;6.25;;;;;24.61;50.51;101326.28;5079221;28;45292;-65
2022/07/31 09:08:34;;;;;;;;;6.75;6.75;;;;;24.69;50.37;101327.19;5079340;28;45362;-73
2022/07/31 09:11:07;;;;;;;;;5.75;5.75;;;;;25.04;49.58;101330.84;5079456;28;45248;-68
2022/07/31 09:13:33;;;;;;;;;8.25;8.25;;;;;25.18;48.11;101315.75;5078811;28;45432;-68
2022/07/31 09:16:00;;;;;;;;;5.25;5.25;;;;;25.28;49.04;101328.22;5078839;28;45403;-64
2022/07/31 09:18:25;;;;;;;;;10.00;8.25;;;;;25.35;48.75;101322.97;5060830;28;45434;-63
2022/07/31 09:21:04;;;;;;;;;8.75;8.50;;;;;25.48;48.08;101322.50;5079199;28;45214;-62
2022/07/31 09:23:30;;;;;;;;;8.00;7.50;;;;;25.68;48.32;101323.94;5078378;28;45372;-63
2022/07/31 09:25:56;;;;;;;;;8.50;8.50;;;;;25.87;48.23;101323.66;5079302;28;45470;-65
2022/07/31 09:28:43;;;;;;;;;3.75;3.75;;;;;26.25;47.61;101323.19;5061197;28;45357;-71
2022/07/31 09:31:10;;;;;;;;;9.25;8.50;;;;;26.60;46.35;101324.75;5079559;28;45478;-69
2022/07/31 09:33:39;;;;;;;;;7.25;7.25;;;;;26.94;45.27;101319.88;5078461;28;46235;-70
2022/07/31 09:36:05;;;;;;;;;6.00;6.00;;;;;27.33;45.22;101321.81;5083438;27;45479;-72
2022/07/31 09:38:35;;;;;;;;;7.00;7.00;;;;;27.68;44.50;101320.47;5099080;27;45536;-71
2022/07/31 09:41:10;;;;;;;;;8.25;8.25;;;;;27.92;41.97;101316.72;5081610;27;45330;-74
2022/07/31 09:43:36;;;;;;;;;9.00;8.00;;;;;28.01;43.35;101317.53;5099035;27;46251;-67
2022/07/31 09:46:03;;;;;;;;;9.00;8.00;;;;;28.33;43.10;101332.84;5099157;27;45413;-69
2022/07/31 09:48:29;;;;;;;;;6.00;6.00;;;;;28.53;41.56;101327.72;5099061;27;45379;-69
2022/07/31 09:51:00;;;;;;;;;8.00;6.50;;;;;28.63;41.63;101314.59;5099277;27;45482;-67
2022/07/31 09:53:26;;;;;;;;;4.00;4.00;;;;;29.12;41.09;101314.09;5098215;27;46320;-64
2022/07/31 09:55:54;;;;;;;;;7.60;7.40;;;;;29.55;41.05;101320.59;5098997;27;45238;-65
2022/07/31 09:58:21;;;;;;;;;6.00;6.00;;;;;29.57;39.37;101329.50;5098938;27;45443;-65
2022/07/31 10:00:50;;;;;;;;;6.80;6.80;;;;;29.59;40.22;101316.44;5099079;27;45448;-67
2022/07/31 10:03:17;;;;;;;;;9.60;8.60;;;;;29.84;39.45;101334.25;5098458;27;45520;-65
2022/07/31 10:05:44;;;;;;;;;8.20;8.00;;;;;30.16;38.34;101329.31;5099070;27;45369;-65
2022/07/31 10:08:12;;;;;;;;;7.00;7.00;;;;;30.28;39.39;101315.91;5098469;27;45397;-71
2022/07/31 10:10:38;;;;;;;;;8.80;8.00;;;;;30.22;38.41;101307.44;5099335;27;45438;-70
2022/07/31 10:13:07;;;;;;;;;5.80;5.80;;;;;30.15;37.82;101305.66;5098575;27;45548;-67
2022/07/31 10:15:36;;;;;;;;;7.00;7.00;;;;;29.99;38.56;101316.88;5098658;27;45259;-65
2022/07/31 10:18:02;;;;;;;;;7.80;7.80;;;;;29.79;38.17;101320.25;5098720;27;45428;-64
2022/07/31 10:20:31;;;;;;;;;5.40;5.40;;;;;29.78;38.42;101310.31;5099284;27;45369;-65
2022/07/31 10:23:21;;;;;;;;;6.00;6.00;;;;;29.66;38.55;101317.34;5098931;27;45369;-69
2022/07/31 10:26:05;;;;;;;;;8.00;6.40;;;;;29.45;38.97;101309.06;5098535;27;45507;-64
2022/07/31 10:28:31;;;;;;;;;7.00;7.00;;;;;29.18;38.79;101310.63;5080330;27;45437;-67
2022/07/31 10:30:57;;;;;;;;;6.80;6.80;;;;;28.93;39.16;101308.19;5098617;27;45548;-63
2022/07/31 10:33:25;;;;;;;;;8.50;7.50;;;;;28.81;40.14;101306.06;5098172;27;45405;-67
2022/07/31 10:36:19;;;;;;;;;5.40;4.60;;;;;28.61;40.50;101300.28;5093525;27;45261;-69
2022/07/31 10:38:50;;;;;;;;;6.80;6.80;;;;;28.19;41.18;101313.44;5078623;28;45419;-67
2022/07/31 10:41:42;;;;;;;;;9.25;6.00;;;;;27.89;41.41;101314.38;5077053;28;45549;-69
2022/07/31 10:44:15;;;;;;;;;6.00;6.00;;;;;27.59;42.48;101310.56;5077816;28;45744;-67
2022/07/31 10:46:41;;;;;;;;;7.00;7.00;;;;;27.47;41.97;101301.94;5059289;28;45291;-66
2022/07/31 10:49:06;;;;;;;;;7.50;7.50;;;;;27.28;42.52;101308.69;5077479;27;45222;-67
2022/07/31 10:51:32;;;;;;;;;9.00;5.50;;;;;27.08;43.22;101301.09;5077782;28;45252;-66
2022/07/31 10:54:02;;;;;;;;;5.50;3.50;;;;;26.99;43.31;101295.66;5058745;28;45337;-67
2022/07/31 10:56:38;;;;;;;;;6.80;6.80;;;;;26.93;43.25;101296.34;5059655;28;45465;-65
2022/07/31 10:59:04;;;;;;;;;7.50;7.50;;;;;26.81;43.84;101295.00;5077453;28;45497;-72
2022/07/31 11:01:30;;;;;;;;;7.25;5.75;;;;;26.73;43.38;101298.63;5077829;28;45549;-69
2022/07/31 11:04:01;;;;;;;;;7.25;7.25;;;;;26.65;43.45;101298.63;5076975;28;45486;-65
2022/07/31 11:06:39;;;;;;;;;5.20;5.20;;;;;26.53;43.78;101305.47;5077338;27;45417;-70
2022/07/31 11:09:04;;;;;;;;;5.00;5.00;;;;;26.41;44.52;101294.06;5077457;28;45314;-63
2022/07/31 11:11:35;;;;;;;;;7.50;5.00;;;;;26.24;45.01;101303.25;5078023;28;45673;-70
2022/07/31 11:14:01;;;;;;;;;7.25;7.00;;;;;26.09;45.22;101294.06;5077513;28;45509;-68
2022/07/31 11:16:28;;;;;;;;;11.75;6.50;;;;;26.18;45.05;101287.59;5076553;28;45468;-70
2022/07/31 11:19:00;;;;;;;;;7.80;7.00;;;;;26.19;45.73;101300.19;5077767;28;45399;-72
2022/07/31 11:21:36;;;;;;;;;6.50;5.00;;;;;26.28;45.23;101293.69;5077438;28;45542;-66
2022/07/31 11:24:14;;;;;;;;;7.00;4.25;;;;;26.24;45.00;101300.53;5077057;28;47154;-71
2022/07/31 11:26:53;;;;;;;;;4.60;4.60;;;;;26.17;45.48;101291.31;5076963;28;45393;-73
2022/07/31 11:29:33;;;;;;;;;8.00;7.75;;;;;26.32;45.18;101278.72;5077551;27;45291;-71